Time;durP1;ratioP1;P1;durP2;ratioP2;P2;SDS_P1;SDS_P2;PMS_P1;PMS_P2;Temp;Humidity;BMP_temperature;BMP_pressure;BME280_temperature;BME280_humidity;BME280_pressure;Samples;Min_cycle;Max_cycle;Signal;HPM_P1;HPM_P2
2021/07/05 00:04:33;;;;;;;14.82;13.27;;;;;;;15.09;90.08;100812.38;10584951;28;20539;-60
2021/07/05 00:09:36;;;;;;;18.73;12.10;;;;;;;15.15;89.33;100819.84;10583286;28;20047;-60
2021/07/05 00:14:39;;;;;;;13.23;11.93;;;;;;;15.02;89.93;100817.28;10584994;28;20048;-59
2021/07/05 00:19:41;;;;;;;11.30;10.20;;;;;;;15.12;89.75;100812.16;10584063;28;20051;-60
2021/07/05 00:24:44;;;;;;;10.02;9.02;;;;;;;15.20;89.49;100799.22;10584229;28;20044;-60
2021/07/05 00:29:46;;;;;;;10.85;9.60;;;;;;;15.00;89.97;100795.47;10584120;28;20043;-60
2021/07/05 00:34:49;;;;;;;9.63;8.70;;;;;;;14.98;89.89;100789.50;10583936;28;20078;-59
2021/07/05 00:39:51;;;;;;;9.70;8.25;;;;;;;14.95;89.84;100779.16;10583805;28;20044;-61
2021/07/05 00:44:53;;;;;;;8.68;7.72;;;;;;;15.05;89.09;100781.94;10582273;28;20044;-60
2021/07/05 00:49:56;;;;;;;12.23;7.65;;;;;;;14.93;88.94;100765.28;10582180;28;20051;-59
2021/07/05 00:54:58;;;;;;;11.43;8.63;;;;;;;14.97;89.19;100771.16;10583294;28;20056;-60
2021/07/05 01:00:00;;;;;;;8.30;7.55;;;;;;;15.02;88.53;100755.81;10582743;28;20485;-60
2021/07/05 01:05:04;;;;;;;9.43;6.95;;;;;;;14.65;89.91;100766.53;10582791;28;20055;-60
2021/07/05 01:10:08;;;;;;;7.55;6.75;;;;;;;14.82;89.07;100760.81;10582192;28;20133;-59
2021/07/05 01:15:13;;;;;;;7.57;6.82;;;;;;;14.67;89.33;100759.34;10581328;28;20067;-60
2021/07/05 01:20:19;;;;;;;7.03;6.38;;;;;;;14.66;89.45;100752.41;10581690;28;20054;-61
2021/07/05 01:25:25;;;;;;;7.60;6.32;;;;;;;14.64;89.71;100756.91;10582181;28;20047;-60
2021/07/05 01:30:28;;;;;;;7.80;5.75;;;;;;;14.83;89.23;100756.41;10582084;28;20047;-60
2021/07/05 01:35:31;;;;;;;8.65;6.53;;;;;;;14.63;89.46;100758.72;10581467;28;20051;-61
2021/07/05 01:40:33;;;;;;;9.88;7.55;;;;;;;14.63;89.76;100750.81;10582183;28;20040;-60
2021/07/05 01:45:35;;;;;;;8.40;7.43;;;;;;;14.47;89.93;100751.13;10581924;28;20044;-60
2021/07/05 01:50:38;;;;;;;10.25;6.05;;;;;;;14.67;89.21;100736.44;10581558;28;20043;-60
2021/07/05 01:55:41;;;;;;;9.77;7.88;;;;;;;14.31;90.07;100729.50;10581541;28;20051;-60
2021/07/05 02:00:46;;;;;;;14.27;9.90;;;;;;;14.43;89.95;100725.09;10580294;28;20066;-61
2021/07/05 02:05:49;;;;;;;9.00;6.25;;;;;;;14.52;89.54;100739.38;10580212;28;20048;-60
2021/07/05 02:10:51;;;;;;;8.32;7.18;;;;;;;14.59;89.55;100743.25;10581382;28;20117;-60
2021/07/05 02:15:56;;;;;;;17.10;9.30;;;;;;;14.64;89.56;100739.34;10581181;28;20067;-60
2021/07/05 02:21:04;;;;;;;10.77;7.60;;;;;;;14.61;89.36;100733.47;10580041;28;20122;-60
2021/07/05 02:26:07;;;;;;;8.93;8.07;;;;;;;14.75;89.18;100732.41;10580833;28;20047;-60
2021/07/05 02:31:10;;;;;;;8.82;7.57;;;;;;;14.76;87.66;100713.84;10580909;28;20400;-61
2021/07/05 02:36:14;;;;;;;10.35;7.70;;;;;;;14.82;88.48;100723.06;10588168;28;20058;-61
2021/07/05 02:41:16;;;;;;;7.40;4.72;;;;;;;14.83;87.37;100716.84;10588582;28;20055;-60
2021/07/05 02:46:18;;;;;;;5.95;5.05;;;;;;;15.00;86.86;100721.66;10588195;28;20044;-61
2021/07/05 02:51:21;;;;;;;8.43;7.53;;;;;;;14.88;87.39;100727.03;10588013;28;20498;-60
2021/07/05 02:56:23;;;;;;;8.88;7.32;;;;;;;14.84;88.32;100740.47;10587981;28;20047;-61
2021/07/05 03:01:26;;;;;;;8.05;7.25;;;;;;;14.97;87.56;100742.97;10588087;28;20047;-60
2021/07/05 03:06:29;;;;;;;7.93;6.65;;;;;;;14.99;87.01;100746.34;10587151;28;20048;-60
2021/07/05 03:11:31;;;;;;;8.35;7.55;;;;;;;15.13;87.81;100749.69;10587195;28;20051;-60
2021/07/05 03:16:33;;;;;;;10.85;9.80;;;;;;;15.08;87.64;100760.63;10586747;28;20052;-60
2021/07/05 03:21:37;;;;;;;14.05;12.65;;;;;;;14.90;89.08;100756.78;10587487;27;20050;-61
2021/07/05 03:26:39;;;;;;;13.73;12.43;;;;;;;15.02;88.78;100761.09;10586569;28;20056;-61
2021/07/05 03:31:41;;;;;;;12.50;11.27;;;;;;;15.22;87.63;100763.03;10586597;28;20044;-60
2021/07/05 03:36:44;;;;;;;12.00;10.93;;;;;;;15.20;87.38;100783.41;10584921;28;20514;-60
2021/07/05 03:41:46;;;;;;;15.50;10.10;;;;;;;15.10;87.79;100777.16;10586179;28;20406;-61
2021/07/05 03:46:48;;;;;;;14.05;10.50;;;;;;;14.96;88.57;100783.50;10585108;28;20411;-60
2021/07/05 03:51:51;;;;;;;8.07;6.60;;;;;;;14.87;88.01;100776.28;10585774;28;20039;-61
2021/07/05 03:56:54;;;;;;;6.20;4.93;;;;;;;14.75;87.33;100764.03;10585503;28;20048;-60
2021/07/05 04:01:56;;;;;;;6.22;4.13;;;;;;;14.61;87.78;100765.09;10585419;28;20058;-60
2021/07/05 04:06:59;;;;;;;6.18;3.80;;;;;;;14.35;87.93;100778.34;10583714;28;20055;-60
2021/07/05 04:12:01;;;;;;;5.45;3.08;;;;;;;14.42;88.27;100776.09;10584758;28;20043;-61
2021/07/05 04:17:04;;;;;;;9.63;3.70;;;;;;;14.29;87.79;100784.91;10584541;28;20056;-61
2021/07/05 04:22:07;;;;;;;6.38;2.72;;;;;;;14.53;86.81;100773.50;10584921;28;20126;-61
2021/07/05 04:27:10;;;;;;;9.00;3.75;;;;;;;14.40;88.36;100778.84;10584105;28;20043;-61
2021/07/05 04:32:12;;;;;;;5.13;2.83;;;;;;;14.52;88.21;100777.09;10584951;28;20063;-61
2021/07/05 04:37:23;;;;;;;4.50;2.80;;;;;;;14.08;87.83;100795.19;10584246;28;20051;-61
2021/07/05 04:42:25;;;;;;;8.10;3.33;;;;;;;14.25;86.67;100795.78;10583749;28;20055;-61
2021/07/05 04:47:28;;;;;;;8.68;2.97;;;;;;;14.27;86.55;100793.84;10583111;28;20527;-60
2021/07/05 04:52:30;;;;;;;5.45;3.17;;;;;;;14.07;88.73;100777.75;10583264;28;20044;-61
2021/07/05 04:57:34;;;;;;;4.38;3.08;;;;;;;14.22;88.24;100798.63;10583318;28;20044;-60
2021/07/05 05:02:37;;;;;;;7.25;3.35;;;;;;;14.08;88.51;100787.28;10583136;28;20047;-61
2021/07/05 05:07:40;;;;;;;6.88;3.90;;;;;;;14.17;88.46;100777.91;10581475;28;20089;-60
2021/07/05 05:12:42;;;;;;;8.32;4.30;;;;;;;14.16;89.23;100775.41;10581691;28;20039;-61
2021/07/05 05:17:46;;;;;;;9.40;4.47;;;;;;;14.35;88.23;100777.50;10582623;28;20087;-61
2021/07/05 05:22:50;;;;;;;9.07;4.68;;;;;;;14.16;89.67;100778.03;10582214;28;20372;-60
2021/07/05 05:27:52;;;;;;;7.28;4.05;;;;;;;14.46;88.13;100783.66;10581995;28;20047;-61
2021/07/05 05:32:56;;;;;;;7.25;4.88;;;;;;;14.09;89.29;100785.53;10581250;28;20044;-61
2021/07/05 05:37:59;;;;;;;10.35;5.75;;;;;;;14.14;88.93;100778.13;10581811;28;20051;-61
2021/07/05 05:43:01;;;;;;;7.32;4.38;;;;;;;14.21;89.43;100778.53;10582183;28;20050;-61
2021/07/05 05:48:04;;;;;;;6.10;4.28;;;;;;;14.31;89.50;100774.25;10581724;28;20043;-61
2021/07/05 05:53:07;;;;;;;8.82;5.05;;;;;;;14.24;89.08;100776.50;10581691;28;20047;-61
2021/07/05 05:58:10;;;;;;;11.25;5.88;;;;;;;14.16;89.50;100768.31;10581876;28;20058;-60
2021/07/05 06:03:12;;;;;;;13.38;7.32;;;;;;;14.26;89.21;100763.22;10581685;28;20048;-61
2021/07/05 06:08:14;;;;;;;10.32;6.07;;;;;;;14.26;88.56;100768.50;10584433;28;20051;-61
2021/07/05 06:13:17;;;;;;;14.00;7.72;;;;;;;14.27;88.81;100768.38;10590051;28;20051;-60
2021/07/05 06:18:19;;;;;;;19.73;8.20;;;;;;;14.15;88.79;100761.38;10589120;28;20047;-60
2021/07/05 06:23:26;;;;;;;11.52;6.65;;;;;;;14.48;88.38;100773.84;10589333;28;20062;-61
2021/07/05 06:28:32;;;;;;;12.02;6.93;;;;;;;14.41;88.95;100764.72;10589068;28;20050;-60
2021/07/05 06:33:34;;;;;;;10.88;6.93;;;;;;;14.53;88.07;100770.88;10588349;28;20046;-60
2021/07/05 06:38:37;;;;;;;11.05;7.50;;;;;;;14.60;87.75;100772.13;10587359;28;20058;-60
2021/07/05 06:43:39;;;;;;;8.75;6.13;;;;;;;14.81;87.91;100784.63;10588131;28;20534;-59
2021/07/05 06:48:43;;;;;;;14.15;7.40;;;;;;;14.98;85.09;100780.75;10588011;28;20554;-60
2021/07/05 06:53:45;;;;;;;13.77;7.18;;;;;;;15.01;86.27;100793.66;10587635;28;20048;-61
2021/07/05 06:58:48;;;;;;;14.13;8.35;;;;;;;14.83;86.51;100793.28;10587504;28;20047;-60
2021/07/05 07:03:50;;;;;;;15.20;8.82;;;;;;;14.92;86.73;100789.13;10585878;28;20402;-60
2021/07/05 07:08:52;;;;;;;10.23;7.95;;;;;;;15.14;87.16;100798.84;10587394;28;20055;-60
2021/07/05 07:13:55;;;;;;;14.45;9.13;;;;;;;15.22;87.12;100792.03;10585857;28;20039;-61
2021/07/05 07:19:07;;;;;;;14.90;7.97;;;;;;;15.51;84.83;100790.72;10586129;28;20044;-60
2021/07/05 07:24:09;;;;;;;10.23;7.88;;;;;;;15.79;84.96;100797.34;10587216;28;20047;-60
2021/07/05 07:29:12;;;;;;;15.43;8.82;;;;;;;16.10;84.09;100794.88;10586507;28;20047;-61
2021/07/05 07:34:14;;;;;;;15.65;8.65;;;;;;;15.75;86.06;100804.69;10585346;28;20047;-61
2021/07/05 07:39:22;;;;;;;12.77;7.72;;;;;;;15.95;83.84;100800.44;10584913;28;20060;-60
2021/07/05 07:44:25;;;;;;;11.95;8.55;;;;;;;16.30;84.19;100809.94;10586501;28;20130;-61
2021/07/05 07:49:29;;;;;;;12.63;7.20;;;;;;;16.33;82.74;100806.22;10585542;28;20043;-60
2021/07/05 07:54:32;;;;;;;11.95;7.45;;;;;;;16.57;83.29;100811.28;10584825;28;20074;-61
2021/07/05 07:59:35;;;;;;;14.90;6.40;;;;;;;15.95;83.65;100816.28;10584301;28;20047;-62
2021/07/05 08:04:38;;;;;;;13.68;6.93;;;;;;;16.21;83.21;100825.72;10584953;28;20059;-60
2021/07/05 08:09:40;;;;;;;13.82;6.55;;;;;;;16.45;82.16;100823.72;10585162;28;20066;-60
2021/07/05 08:14:43;;;;;;;12.82;6.85;;;;;;;16.50;83.34;100831.28;10584798;28;20479;-61
2021/07/05 08:19:45;;;;;;;14.85;7.20;;;;;;;16.59;82.59;100833.16;10585748;28;20065;-62
2021/07/05 08:24:49;;;;;;;8.85;6.55;;;;;;;16.67;82.93;100824.59;10583257;28;20048;-60
2021/07/05 08:29:52;;;;;;;15.60;8.23;;;;;;;16.69;83.76;100825.31;10583621;28;20506;-60
2021/07/05 08:34:55;;;;;;;11.82;7.18;;;;;;;16.68;82.52;100819.19;10584042;28;20130;-61
2021/07/05 08:39:57;;;;;;;12.40;8.60;;;;;;;16.81;84.17;100823.44;10582656;28;20083;-61
2021/07/05 08:45:00;;;;;;;10.80;6.68;;;;;;;17.02;80.95;100824.31;10583886;28;20043;-60
2021/07/05 08:50:04;;;;;;;9.07;6.60;;;;;;;16.70;81.64;100830.47;10583378;28;20047;-60
2021/07/05 08:55:07;;;;;;;10.48;6.32;;;;;;;16.93;80.83;100830.41;10583212;28;20147;-60
2021/07/05 09:00:18;;;;;;;14.35;6.88;;;;;;;17.19;80.01;100838.78;10582999;28;20055;-60
2021/07/05 09:05:20;;;;;;;11.40;6.35;;;;;;;16.71;81.51;100839.25;10582405;28;20491;-61
2021/07/05 09:10:23;;;;;;;12.38;6.65;;;;;;;17.05;81.44;100831.19;10581182;28;20054;-61
2021/07/05 09:15:38;;;;;;;11.52;6.25;;;;;;;17.36;81.29;100832.03;10582457;28;20051;-60
2021/07/05 09:20:41;;;;;;;16.15;6.88;;;;;;;17.13;80.90;100831.38;10582486;28;20052;-60
2021/07/05 09:25:48;;;;;;;7.47;5.93;;;;;;;17.54;80.51;100826.16;10582125;28;20051;-60
2021/07/05 09:30:56;;;;;;;12.75;6.65;;;;;;;17.73;81.56;100836.81;10582520;28;20048;-61
2021/07/05 09:36:01;;;;;;;11.80;6.65;;;;;;;17.45;80.48;100843.66;10581713;28;20047;-60
2021/07/05 09:41:36;;;;;;;11.20;6.47;;;;;;;17.35;80.06;100843.63;10580358;28;20048;-61
2021/07/05 09:46:45;;;;;;;16.08;6.97;;;;;;;17.57;81.69;100844.41;10558159;28;20048;-61
2021/07/05 09:52:07;;;;;;;14.30;6.95;;;;;;;17.48;81.29;100848.69;10581519;28;20416;-60
2021/07/05 09:57:25;;;;;;;10.85;6.10;;;;;;;17.69;81.12;100845.16;10581912;28;20081;-60
2021/07/05 10:02:28;;;;;;;12.02;5.78;;;;;;;17.97;78.06;100847.09;10580688;28;20048;-62
2021/07/05 10:07:30;;;;;;;10.85;6.53;;;;;;;17.72;79.62;100848.38;10581307;28;20050;-61
2021/07/05 10:12:33;;;;;;;13.55;6.57;;;;;;;17.35;77.23;100854.19;10581381;28;20044;-59
2021/07/05 10:17:38;;;;;;;11.88;7.75;;;;;;;17.41;81.21;100858.13;10581722;28;20384;-61
2021/07/05 10:22:42;;;;;;;9.88;6.68;;;;;;;17.48;78.41;100845.19;10581053;28;20487;-59
2021/07/05 10:27:45;;;;;;;8.65;6.30;;;;;;;17.69;79.39;100858.41;10580886;28;20137;-60
2021/07/05 10:32:49;;;;;;;8.48;6.63;;;;;;;17.76;78.32;100847.13;10581021;28;20039;-60
2021/07/05 10:38:00;;;;;;;7.95;6.70;;;;;;;17.54;80.57;100842.03;10580736;28;20430;-60
2021/07/05 10:43:02;;;;;;;10.53;6.33;;;;;;;17.84;77.27;100838.53;10582138;28;20047;-60
2021/07/05 10:48:05;;;;;;;12.43;7.45;;;;;;;17.76;80.75;100835.72;10580658;28;20156;-61
2021/07/05 10:53:34;;;;;;;11.77;7.55;;;;;;;17.43;81.02;100849.09;10581675;28;20055;-60
2021/07/05 10:58:36;;;;;;;13.63;7.60;;;;;;;17.73;78.80;100841.28;10572076;28;20044;-61
2021/07/05 11:03:39;;;;;;;13.73;8.48;;;;;;;16.86;83.30;100845.09;10587763;28;20482;-61
2021/07/05 11:08:49;;;;;;;12.05;8.77;;;;;;;17.16;82.86;100864.66;10587282;28;20048;-62
2021/07/05 11:14:18;;;;;;;10.13;8.15;;;;;;;16.80;84.76;100861.44;10587082;28;20048;-61
2021/07/05 11:19:56;;;;;;;10.02;6.78;;;;;;;16.80;84.90;100864.09;10587183;28;20050;-61
2021/07/05 11:25:00;;;;;;;5.88;4.75;;;;;;;17.01;83.78;100861.47;10580160;28;20086;-62
2021/07/05 11:30:15;;;;;;;7.10;5.70;;;;;;;17.07;82.52;100861.81;10586843;28;20051;-61
2021/07/05 11:35:39;;;;;;;6.38;5.07;;;;;;;17.12;85.16;100861.44;10586866;28;20051;-61
2021/07/05 11:40:47;;;;;;;9.75;5.20;;;;;;;17.37;80.97;100848.78;10586744;28;20058;-61
2021/07/05 11:45:50;;;;;;;7.63;5.47;;;;;;;17.77;82.31;100838.22;10586339;28;20055;-62
2021/07/05 11:50:53;;;;;;;6.03;4.82;;;;;;;17.99;82.68;100845.16;10585868;28;20055;-61
2021/07/05 11:55:55;;;;;;;8.85;4.50;;;;;;;18.28;80.64;100841.72;10586087;28;20043;-62
2021/07/05 12:01:11;;;;;;;7.10;4.90;;;;;;;18.73;80.10;100841.19;10585849;28;20130;-61
2021/07/05 12:06:13;;;;;;;6.15;4.13;;;;;;;18.88;77.91;100836.34;10584644;28;20039;-61
2021/07/05 12:11:27;;;;;;;5.53;3.80;;;;;;;18.75;77.57;100825.97;10585064;28;20048;-61
2021/07/05 12:16:29;;;;;;;9.88;4.30;;;;;;;18.67;79.75;100827.66;10584658;28;20052;-61
2021/07/05 12:21:35;;;;;;;5.72;3.00;;;;;;;19.66;76.62;100814.88;10584905;28;20043;-62
2021/07/05 12:26:55;;;;;;;7.38;2.45;;;;;;;20.32;71.75;100815.63;10584305;28;20058;-61
2021/07/05 12:32:04;;;;;;;1.45;1.27;;;;;;;20.08;72.22;100812.75;10583361;28;20053;-61
2021/07/05 12:37:12;;;;;;;1.95;1.13;;;;;;;20.46;67.74;100800.13;10583189;28;20069;-61
2021/07/05 12:42:39;;;;;;;3.10;1.10;;;;;;;21.15;69.44;100806.53;10584431;28;20044;-61
2021/07/05 12:47:49;;;;;;;5.32;1.30;;;;;;;22.51;67.71;100805.69;10583496;28;20441;-61
2021/07/05 12:53:24;;;;;;;3.70;1.20;;;;;;;21.93;59.63;100800.25;10582466;28;20051;-61
2021/07/05 12:58:34;;;;;;;4.00;1.42;;;;;;;23.47;59.19;100801.41;10583633;28;20047;-62
2021/07/05 13:03:37;;;;;;;4.72;1.25;;;;;;;21.89;54.46;100802.41;10583561;28;20101;-60
2021/07/05 13:08:40;;;;;;;3.92;1.20;;;;;;;22.01;53.48;100812.78;10583244;28;20051;-60
2021/07/05 13:13:46;;;;;;;4.03;1.48;;;;;;;22.37;61.89;100812.53;10582671;28;20039;-61
2021/07/05 13:18:49;;;;;;;1.67;0.88;;;;;;;21.38;58.11;100804.16;10581478;28;20058;-61
2021/07/05 13:23:52;;;;;;;4.15;1.38;;;;;;;20.88;63.08;100803.03;10582246;28;20044;-61
2021/07/05 13:28:55;;;;;;;4.97;1.70;;;;;;;20.91;65.72;100796.53;10582197;28;20051;-62
2021/07/05 13:33:58;;;;;;;2.78;1.30;;;;;;;20.81;62.85;100804.63;10582399;28;20047;-62
2021/07/05 13:39:01;;;;;;;3.17;1.13;;;;;;;20.95;66.06;100801.41;10582315;28;20054;-60
2021/07/05 13:44:03;;;;;;;3.25;1.33;;;;;;;20.26;66.16;100805.63;10581963;28;20048;-60
2021/07/05 13:49:13;;;;;;;4.50;1.67;;;;;;;19.57;68.86;100805.16;10581430;28;20377;-60
2021/07/05 13:54:28;;;;;;;5.82;1.85;;;;;;;20.31;67.54;100798.03;10581786;28;20054;-61
2021/07/05 13:59:30;;;;;;;3.88;1.50;;;;;;;20.26;66.71;100794.13;10582045;28;20047;-62
2021/07/05 14:04:32;;;;;;;3.70;1.60;;;;;;;20.43;66.44;100793.31;10580312;28;20043;-61
2021/07/05 14:09:35;;;;;;;3.78;1.50;;;;;;;21.18;62.72;100786.75;10581357;28;20047;-60
2021/07/05 14:14:37;;;;;;;4.72;1.70;;;;;;;20.99;62.57;100780.63;10581326;28;20090;-61
2021/07/05 14:19:39;;;;;;;3.35;1.23;;;;;;;20.58;64.18;100778.47;10581719;28;20047;-61
2021/07/05 14:24:42;;;;;;;2.20;1.73;;;;;;;20.20;62.68;100774.31;10581022;28;20062;-61
2021/07/05 14:29:44;;;;;;;3.75;1.90;;;;;;;20.57;61.24;100784.78;10584736;28;20390;-62
2021/07/05 14:34:46;;;;;;;6.10;2.20;;;;;;;20.19;64.92;100776.16;10589390;28;20043;-60
2021/07/05 14:39:48;;;;;;;4.78;2.13;;;;;;;22.69;59.32;100769.00;10588741;28;20419;-61
2021/07/05 14:44:53;;;;;;;2.85;2.03;;;;;;;21.12;58.63;100766.91;10589023;28;20055;-62
2021/07/05 14:49:55;;;;;;;6.25;2.78;;;;;;;22.44;59.56;100758.38;10588171;28;20054;-62
2021/07/05 14:54:57;;;;;;;3.75;2.17;;;;;;;22.44;55.38;100754.84;10588120;28;20051;-60
2021/07/05 15:00:00;;;;;;;3.22;1.83;;;;;;;22.05;60.54;100758.94;10587763;28;20376;-60
2021/07/05 15:05:05;;;;;;;3.03;2.33;;;;;;;20.40;64.48;100756.41;10586688;28;20055;-60
2021/07/05 15:10:09;;;;;;;4.88;2.28;;;;;;;20.39;63.22;100749.41;10587548;28;20047;-60
2021/07/05 15:15:12;;;;;;;6.25;3.60;;;;;;;21.31;60.91;100756.03;10587157;28;20433;-60
2021/07/05 15:20:17;;;;;;;3.88;2.58;;;;;;;21.80;60.19;100735.91;10587951;28;20050;-61
2021/07/05 15:25:19;;;;;;;5.85;2.60;;;;;;;22.06;59.43;100730.47;10587200;27;20048;-59
2021/07/05 15:30:22;;;;;;;3.42;2.65;;;;;;;20.76;63.31;100743.91;10586688;28;20054;-60
2021/07/05 15:35:25;;;;;;;3.80;2.22;;;;;;;20.77;66.54;100739.41;10586066;28;20495;-59
2021/07/05 15:40:27;;;;;;;5.05;1.77;;;;;;;20.54;64.37;100725.75;10585478;28;20044;-60
2021/07/05 15:45:29;;;;;;;3.42;2.17;;;;;;;19.94;67.28;100735.22;10586665;28;20043;-61
2021/07/05 15:50:32;;;;;;;11.95;2.00;;;;;;;20.23;67.00;100732.31;10586024;28;20054;-61
2021/07/05 15:55:36;;;;;;;3.63;1.60;;;;;;;20.07;65.41;100732.16;10585750;28;20055;-61
2021/07/05 16:00:46;;;;;;;3.40;1.55;;;;;;;19.98;66.08;100746.38;10585689;28;20067;-61
2021/07/05 16:05:48;;;;;;;6.18;1.67;;;;;;;20.17;65.81;100742.72;10585295;28;20052;-60
2021/07/05 16:10:51;;;;;;;3.80;1.75;;;;;;;20.16;67.19;100739.25;10584184;28;20051;-60
2021/07/05 16:15:54;;;;;;;1.88;1.60;;;;;;;20.61;63.73;100729.47;10584033;28;20052;-61
2021/07/05 16:20:56;;;;;;;2.97;2.22;;;;;;;20.13;66.16;100718.28;10583848;28;20150;-60
2021/07/05 16:25:59;;;;;;;7.68;2.50;;;;;;;20.10;65.83;100725.72;10584499;28;20048;-61
2021/07/05 16:31:01;;;;;;;8.88;2.42;;;;;;;20.16;66.03;100727.78;10584306;28;20563;-60
2021/07/05 16:36:03;;;;;;;2.40;1.67;;;;;;;19.71;67.95;100728.63;10584150;28;20049;-60
2021/07/05 16:41:06;;;;;;;3.55;1.95;;;;;;;19.75;67.44;100730.84;10583950;28;20062;-61
2021/07/05 16:46:08;;;;;;;2.08;1.60;;;;;;;19.47;71.59;100725.53;10583862;28;20052;-61
2021/07/05 16:51:20;;;;;;;2.30;1.15;;;;;;;20.24;67.68;100725.19;10583181;28;20540;-61
2021/07/05 16:56:23;;;;;;;4.38;1.77;;;;;;;19.97;68.64;100715.47;10583897;28;20040;-61
2021/07/05 17:01:25;;;;;;;1.15;1.05;;;;;;;20.04;70.52;100705.91;10582071;28;20058;-61
2021/07/05 17:06:32;;;;;;;1.45;1.27;;;;;;;19.11;70.77;100696.25;10584230;28;20055;-61
2021/07/05 17:11:34;;;;;;;0.70;0.70;;;;;;;19.56;70.81;100704.38;10582731;28;20483;-60
2021/07/05 17:16:41;;;;;;;2.25;0.70;;;;;;;19.72;69.21;100704.56;10582523;28;20048;-60
2021/07/05 17:21:44;;;;;;;1.52;0.70;;;;;;;19.80;70.32;100728.59;10581800;28;20051;-61
2021/07/05 17:26:46;;;;;;;0.95;0.80;;;;;;;19.47;70.44;100714.09;10582021;28;20047;-60
2021/07/05 17:31:49;;;;;;;1.05;0.52;;;;;;;19.71;71.03;100708.19;10582542;28;20062;-60
2021/07/05 17:36:52;;;;;;;2.05;1.40;;;;;;;19.33;71.17;100707.44;10580819;28;20047;-61
2021/07/05 17:41:54;;;;;;;3.53;1.80;;;;;;;19.43;71.27;100705.59;10582319;28;20048;-60
2021/07/05 17:46:56;;;;;;;2.83;1.70;;;;;;;19.04;71.22;100715.53;10582248;28;20052;-60
2021/07/05 17:51:59;;;;;;;3.25;1.70;;;;;;;18.94;69.29;100707.59;10581737;28;20052;-60
2021/07/05 17:57:02;;;;;;;3.90;1.65;;;;;;;19.04;70.88;100707.56;10580580;28;20067;-61
2021/07/05 18:02:05;;;;;;;2.50;1.23;;;;;;;19.03;69.72;100714.69;10581477;28;20403;-60
2021/07/05 18:07:08;;;;;;;2.25;1.45;;;;;;;18.85;69.44;100701.34;10589293;28;20395;-61
2021/07/05 18:12:12;;;;;;;4.78;1.60;;;;;;;19.07;71.05;100697.50;10588774;28;20055;-60
2021/07/05 18:17:16;;;;;;;1.83;1.50;;;;;;;18.80;69.99;100703.56;10590023;28;20058;-61
2021/07/05 18:22:19;;;;;;;2.30;2.00;;;;;;;18.72;70.94;100711.41;10589945;28;20047;-61
2021/07/05 18:27:24;;;;;;;3.05;1.65;;;;;;;18.87;71.47;100699.38;10589510;28;20051;-60
2021/07/05 18:32:26;;;;;;;3.80;1.65;;;;;;;18.88;71.60;100693.09;10589658;28;20073;-60
2021/07/05 18:37:32;;;;;;;3.60;2.25;;;;;;;18.67;72.33;100680.00;10588715;28;20062;-60
2021/07/05 18:42:34;;;;;;;2.45;1.70;;;;;;;18.79;73.82;100685.97;10589107;28;20048;-61
2021/07/05 18:47:37;;;;;;;4.72;1.90;;;;;;;18.63;73.83;100689.22;10588518;28;20051;-60
2021/07/05 18:52:40;;;;;;;8.52;2.13;;;;;;;18.49;74.50;100692.31;10588470;28;20044;-60
2021/07/05 18:57:42;;;;;;;4.00;2.92;;;;;;;18.31;74.17;100682.44;10587481;28;20057;-60
2021/07/05 19:02:46;;;;;;;2.30;2.15;;;;;;;18.22;74.07;100677.16;10587568;28;20051;-61
2021/07/05 19:07:49;;;;;;;7.25;2.42;;;;;;;18.22;74.04;100675.31;10587887;28;20051;-60
2021/07/05 19:12:51;;;;;;;2.97;2.22;;;;;;;17.86;75.19;100667.09;10587492;28;20047;-60
2021/07/05 19:17:54;;;;;;;4.43;2.13;;;;;;;18.04;73.88;100677.00;10587372;28;20051;-60
2021/07/05 19:22:56;;;;;;;4.53;2.90;;;;;;;17.90;73.47;100678.25;10587157;28;20503;-60
2021/07/05 19:27:59;;;;;;;2.97;2.67;;;;;;;17.68;74.90;100679.34;10587188;28;20048;-60
2021/07/05 19:33:02;;;;;;;4.07;2.63;;;;;;;17.92;73.81;100678.97;10587015;28;20039;-60
2021/07/05 19:38:06;;;;;;;4.15;2.47;;;;;;;17.71;74.68;100684.34;10586436;28;20055;-61
2021/07/05 19:43:08;;;;;;;5.95;3.30;;;;;;;17.60;75.88;100685.28;10586631;28;20047;-60
2021/07/05 19:48:11;;;;;;;6.25;3.03;;;;;;;17.19;77.52;100680.03;10584851;28;20073;-61
2021/07/05 19:53:13;;;;;;;3.80;2.90;;;;;;;17.41;76.84;100670.22;10584692;28;20495;-62
2021/07/05 19:58:15;;;;;;;4.30;2.63;;;;;;;17.31;77.57;100656.13;10585534;28;20052;-60
2021/07/05 20:03:18;;;;;;;5.35;3.33;;;;;;;17.30;77.46;100655.31;10585627;28;20049;-60
2021/07/05 20:08:21;;;;;;;3.70;2.88;;;;;;;17.18;77.73;100654.56;10585298;28;20047;-60
2021/07/05 20:13:23;;;;;;;3.97;3.58;;;;;;;17.12;78.05;100643.69;10584077;28;20043;-59
2021/07/05 20:18:26;;;;;;;8.52;3.30;;;;;;;17.37;77.40;100655.59;10584990;28;20051;-61
2021/07/05 20:23:29;;;;;;;4.18;2.63;;;;;;;17.31;77.19;100661.41;10584703;28;20729;-61
2021/07/05 20:28:31;;;;;;;6.88;3.88;;;;;;;17.13;78.87;100651.50;10583740;28;20051;-60
2021/07/05 20:33:36;;;;;;;4.20;2.85;;;;;;;17.19;79.07;100650.94;10584368;28;20040;-61
2021/07/05 20:38:38;;;;;;;5.65;2.88;;;;;;;17.08;79.08;100651.88;10584080;28;20054;-60
2021/07/05 20:43:40;;;;;;;3.95;2.95;;;;;;;16.83;80.94;100645.22;10584344;28;20044;-60
2021/07/05 20:48:44;;;;;;;6.45;3.33;;;;;;;16.74;81.53;100647.81;10583611;28;20055;-60
2021/07/05 20:53:46;;;;;;;4.35;3.80;;;;;;;16.91;80.60;100641.91;10584011;28;20051;-61
2021/07/05 20:58:48;;;;;;;6.20;4.10;;;;;;;16.87;80.95;100643.16;10583058;28;20066;-60
2021/07/05 21:03:51;;;;;;;5.10;3.88;;;;;;;16.95;80.46;100642.53;10583173;28;20039;-61
2021/07/05 21:08:53;;;;;;;5.88;4.32;;;;;;;16.74;81.58;100643.34;10582627;28;20403;-60
2021/07/05 21:13:56;;;;;;;6.78;3.63;;;;;;;16.78;81.37;100626.28;10582250;28;20047;-60
2021/07/05 21:18:58;;;;;;;6.88;4.13;;;;;;;16.97;80.74;100612.31;10582862;28;20056;-61
2021/07/05 21:24:00;;;;;;;7.80;6.05;;;;;;;16.82;81.31;100609.16;10582479;28;20047;-61
2021/07/05 21:29:03;;;;;;;12.55;5.40;;;;;;;16.68;81.55;100598.97;10582377;28;20055;-61
2021/07/05 21:34:05;;;;;;;6.68;5.47;;;;;;;16.84;81.10;100596.66;10581121;28;20059;-60
2021/07/05 21:39:08;;;;;;;9.75;7.07;;;;;;;16.72;81.71;100587.97;10581075;28;20050;-60
2021/07/05 21:44:10;;;;;;;7.50;4.93;;;;;;;16.83;81.84;100586.22;10581825;28;20395;-60
2021/07/05 21:49:12;;;;;;;11.18;5.30;;;;;;;16.58;82.59;100577.75;10581637;28;20044;-60
2021/07/05 21:54:15;;;;;;;8.85;5.97;;;;;;;16.85;81.51;100579.03;10581985;28;20071;-61
2021/07/05 21:59:17;;;;;;;10.27;5.63;;;;;;;16.91;81.56;100573.16;10581586;28;20044;-60
2021/07/05 22:04:20;;;;;;;13.82;7.20;;;;;;;16.69;81.29;100559.19;10581375;28;20048;-60
2021/07/05 22:09:22;;;;;;;7.30;6.25;;;;;;;16.77;81.86;100566.41;10581432;28;20070;-60
2021/07/05 22:14:25;;;;;;;8.45;5.88;;;;;;;16.61;82.93;100548.44;10581271;28;20055;-60
2021/07/05 22:19:29;;;;;;;13.75;7.47;;;;;;;16.71;82.63;100546.66;10581352;28;20055;-60
2021/07/05 22:24:32;;;;;;;7.30;6.60;;;;;;;16.56;83.84;100529.50;10581758;28;20058;-60
2021/07/05 22:29:34;;;;;;;8.70;6.88;;;;;;;16.65;83.64;100531.31;10581061;28;20054;-59
2021/07/05 22:34:36;;;;;;;12.65;7.55;;;;;;;16.74;83.40;100534.97;10580930;28;20475;-60
2021/07/05 22:39:39;;;;;;;9.15;6.55;;;;;;;16.77;82.81;100537.34;10580437;28;20052;-60
2021/07/05 22:44:41;;;;;;;7.90;5.95;;;;;;;16.82;83.24;100526.38;10580913;28;20047;-61
2021/07/05 22:49:43;;;;;;;9.02;6.95;;;;;;;16.67;83.34;100520.63;10582483;28;20048;-60
2021/07/05 22:54:46;;;;;;;12.68;8.98;;;;;;;16.83;83.31;100512.19;10588428;28;20054;-61
2021/07/05 22:59:48;;;;;;;10.73;6.82;;;;;;;16.81;83.28;100504.41;10588308;28;20047;-61
2021/07/05 23:04:50;;;;;;;11.23;7.65;;;;;;;16.90;83.18;100492.19;10587704;28;20426;-61
2021/07/05 23:09:52;;;;;;;10.68;8.00;;;;;;;16.79;84.04;100482.53;10587571;28;20372;-61
2021/07/05 23:14:55;;;;;;;12.88;8.68;;;;;;;17.09;82.65;100492.19;10587305;28;20055;-60